sensor_id;sensor_type;location;lat;lon;timestamp;pressure;altitude;pressure_sealevel;temperature;humidity
15066;BME280;7632;64.944;20.038;2023-09-07T00:02:05;100261.41;;;3.35;100.00
15066;BME280;7632;64.944;20.038;2023-09-07T00:04:31;100265.09;;;3.44;100.00
15066;BME280;7632;64.944;20.038;2023-09-07T00:06:59;100258.72;;;3.57;100.00
15066;BME280;7632;64.944;20.038;2023-09-07T00:09:27;100252.75;;;3.55;100.00
15066;BME280;7632;64.944;20.038;2023-09-07T00:11:54;100255.28;;;3.55;100.00
15066;BME280;7632;64.944;20.038;2023-09-07T00:14:20;100253.34;;;3.48;100.00
15066;BME280;7632;64.944;20.038;2023-09-07T00:16:47;100250.13;;;3.27;100.00
15066;BME280;7632;64.944;20.038;2023-09-07T00:19:14;100259.66;;;3.09;100.00
15066;BME280;7632;64.944;20.038;2023-09-07T00:21:41;100257.09;;;3.07;100.00
15066;BME280;7632;64.944;20.038;2023-09-07T00:24:09;100246.56;;;3.22;100.00
15066;BME280;7632;64.944;20.038;2023-09-07T00:26:35;100249.28;;;3.28;100.00
15066;BME280;7632;64.944;20.038;2023-09-07T00:29:02;100254.88;;;3.18;100.00
15066;BME280;7632;64.944;20.038;2023-09-07T00:31:29;100247.44;;;3.22;100.00
15066;BME280;7632;64.944;20.038;2023-09-07T00:33:55;100250.19;;;3.03;100.00
15066;BME280;7632;64.944;20.038;2023-09-07T00:36:22;100244.13;;;3.00;100.00
15066;BME280;7632;64.944;20.038;2023-09-07T00:38:49;100218.63;;;2.72;100.00
15066;BME280;7632;64.944;20.038;2023-09-07T00:41:17;100237.06;;;2.68;100.00
15066;BME280;7632;64.944;20.038;2023-09-07T00:43:43;100253.44;;;2.52;100.00
15066;BME280;7632;64.944;20.038;2023-09-07T00:46:10;100246.59;;;2.49;100.00
15066;BME280;7632;64.944;20.038;2023-09-07T00:48:38;100251.50;;;2.45;100.00
15066;BME280;7632;64.944;20.038;2023-09-07T00:51:05;100250.84;;;2.50;100.00
15066;BME280;7632;64.944;20.038;2023-09-07T00:53:38;100232.88;;;2.44;100.00
15066;BME280;7632;64.944;20.038;2023-09-07T00:56:06;100250.69;;;2.46;100.00
15066;BME280;7632;64.944;20.038;2023-09-07T00:58:34;100205.38;;;2.31;100.00
15066;BME280;7632;64.944;20.038;2023-09-07T01:01:02;100249.34;;;2.55;100.00
15066;BME280;7632;64.944;20.038;2023-09-07T01:03:28;100223.09;;;2.53;100.00
15066;BME280;7632;64.944;20.038;2023-09-07T01:05:58;100233.31;;;2.56;100.00
15066;BME280;7632;64.944;20.038;2023-09-07T01:08:32;100216.31;;;2.54;100.00
15066;BME280;7632;64.944;20.038;2023-09-07T01:11:13;100240.00;;;2.54;100.00
15066;BME280;7632;64.944;20.038;2023-09-07T01:13:41;100234.16;;;2.55;100.00
15066;BME280;7632;64.944;20.038;2023-09-07T01:16:09;100226.41;;;2.52;100.00
15066;BME280;7632;64.944;20.038;2023-09-07T01:18:37;100223.56;;;2.43;100.00
15066;BME280;7632;64.944;20.038;2023-09-07T01:21:05;100204.09;;;2.42;100.00
15066;BME280;7632;64.944;20.038;2023-09-07T01:23:34;100223.34;;;2.37;100.00
15066;BME280;7632;64.944;20.038;2023-09-07T01:26:02;100220.94;;;2.42;100.00
15066;BME280;7632;64.944;20.038;2023-09-07T01:28:29;100218.16;;;2.34;100.00
15066;BME280;7632;64.944;20.038;2023-09-07T01:30:56;100216.41;;;2.10;100.00
15066;BME280;7632;64.944;20.038;2023-09-07T01:33:23;100235.13;;;1.91;100.00
15066;BME280;7632;64.944;20.038;2023-09-07T01:35:50;100231.53;;;1.86;100.00
15066;BME280;7632;64.944;20.038;2023-09-07T01:38:17;100216.47;;;1.67;100.00
15066;BME280;7632;64.944;20.038;2023-09-07T01:40:45;100229.78;;;1.84;100.00
15066;BME280;7632;64.944;20.038;2023-09-07T01:43:12;100246.75;;;1.86;100.00
15066;BME280;7632;64.944;20.038;2023-09-07T01:45:39;100234.84;;;1.84;100.00
15066;BME280;7632;64.944;20.038;2023-09-07T01:48:08;100234.44;;;1.95;100.00
15066;BME280;7632;64.944;20.038;2023-09-07T01:50:35;100231.53;;;2.08;100.00
15066;BME280;7632;64.944;20.038;2023-09-07T01:53:02;100223.53;;;2.20;100.00
15066;BME280;7632;64.944;20.038;2023-09-07T01:55:30;100221.13;;;2.23;100.00
15066;BME280;7632;64.944;20.038;2023-09-07T01:57:58;100217.63;;;2.19;100.00
15066;BME280;7632;64.944;20.038;2023-09-07T02:00:25;100228.03;;;2.05;100.00
15066;BME280;7632;64.944;20.038;2023-09-07T02:02:51;100183.31;;;1.61;100.00
15066;BME280;7632;64.944;20.038;2023-09-07T02:05:18;100220.72;;;1.90;100.00
15066;BME280;7632;64.944;20.038;2023-09-07T02:07:46;100197.13;;;1.91;100.00
15066;BME280;7632;64.944;20.038;2023-09-07T02:10:15;100209.91;;;1.94;100.00
15066;BME280;7632;64.944;20.038;2023-09-07T02:12:41;100203.69;;;2.08;100.00
15066;BME280;7632;64.944;20.038;2023-09-07T02:15:09;100203.81;;;2.11;100.00
15066;BME280;7632;64.944;20.038;2023-09-07T02:17:36;100207.66;;;2.02;100.00
15066;BME280;7632;64.944;20.038;2023-09-07T02:20:03;100194.00;;;1.98;100.00
15066;BME280;7632;64.944;20.038;2023-09-07T02:22:35;100204.97;;;1.97;100.00
15066;BME280;7632;64.944;20.038;2023-09-07T02:25:02;100208.53;;;1.80;100.00
15066;BME280;7632;64.944;20.038;2023-09-07T02:27:31;100191.59;;;1.57;100.00
15066;BME280;7632;64.944;20.038;2023-09-07T02:29:57;100216.25;;;1.83;100.00
15066;BME280;7632;64.944;20.038;2023-09-07T02:32:25;100204.16;;;1.76;100.00
15066;BME280;7632;64.944;20.038;2023-09-07T02:34:52;100213.31;;;1.72;100.00
15066;BME280;7632;64.944;20.038;2023-09-07T02:37:19;100214.03;;;1.70;100.00
15066;BME280;7632;64.944;20.038;2023-09-07T02:39:46;100212.09;;;1.63;100.00
15066;BME280;7632;64.944;20.038;2023-09-07T02:42:12;100178.25;;;1.61;100.00
15066;BME280;7632;64.944;20.038;2023-09-07T02:44:39;100201.78;;;1.81;100.00
15066;BME280;7632;64.944;20.038;2023-09-07T02:47:06;100207.38;;;1.72;100.00
15066;BME280;7632;64.944;20.038;2023-09-07T02:49:34;100205.75;;;1.74;100.00
15066;BME280;7632;64.944;20.038;2023-09-07T02:52:01;100199.22;;;1.79;100.00
15066;BME280;7632;64.944;20.038;2023-09-07T02:54:27;100200.31;;;1.86;100.00
15066;BME280;7632;64.944;20.038;2023-09-07T02:56:54;100191.31;;;1.94;100.00
15066;BME280;7632;64.944;20.038;2023-09-07T02:59:21;100193.31;;;2.02;100.00
15066;BME280;7632;64.944;20.038;2023-09-07T03:01:48;100188.72;;;1.92;100.00
15066;BME280;7632;64.944;20.038;2023-09-07T03:04:14;100188.72;;;1.70;100.00
15066;BME280;7632;64.944;20.038;2023-09-07T03:06:42;100181.94;;;1.47;100.00
15066;BME280;7632;64.944;20.038;2023-09-07T03:09:09;100206.16;;;1.62;100.00
15066;BME280;7632;64.944;20.038;2023-09-07T03:11:36;100193.78;;;1.70;100.00
15066;BME280;7632;64.944;20.038;2023-09-07T03:14:03;100195.84;;;1.80;100.00
15066;BME280;7632;64.944;20.038;2023-09-07T03:16:31;100151.19;;;1.60;100.00
15066;BME280;7632;64.944;20.038;2023-09-07T03:18:57;100169.84;;;1.62;100.00
15066;BME280;7632;64.944;20.038;2023-09-07T03:21:24;100187.13;;;1.72;100.00
15066;BME280;7632;64.944;20.038;2023-09-07T03:23:56;100189.09;;;1.79;100.00
15066;BME280;7632;64.944;20.038;2023-09-07T03:26:22;100192.75;;;1.65;100.00
15066;BME280;7632;64.944;20.038;2023-09-07T03:28:50;100183.16;;;1.36;100.00
15066;BME280;7632;64.944;20.038;2023-09-07T03:31:17;100180.53;;;1.33;100.00
15066;BME280;7632;64.944;20.038;2023-09-07T03:33:43;100185.84;;;1.39;100.00
15066;BME280;7632;64.944;20.038;2023-09-07T03:36:10;100161.06;;;1.32;100.00
15066;BME280;7632;64.944;20.038;2023-09-07T03:38:39;100156.72;;;1.28;100.00
15066;BME280;7632;64.944;20.038;2023-09-07T03:41:07;100157.06;;;1.37;100.00
15066;BME280;7632;64.944;20.038;2023-09-07T03:43:34;100183.25;;;1.37;100.00
15066;BME280;7632;64.944;20.038;2023-09-07T03:46:01;100179.19;;;1.20;100.00
15066;BME280;7632;64.944;20.038;2023-09-07T03:48:28;100185.25;;;1.24;100.00
15066;BME280;7632;64.944;20.038;2023-09-07T03:50:54;100155.09;;;1.30;100.00
15066;BME280;7632;64.944;20.038;2023-09-07T03:53:21;100174.22;;;1.44;100.00
15066;BME280;7632;64.944;20.038;2023-09-07T03:55:48;100175.03;;;1.43;100.00
15066;BME280;7632;64.944;20.038;2023-09-07T03:58:16;100149.81;;;1.24;100.00
15066;BME280;7632;64.944;20.038;2023-09-07T04:00:44;100162.38;;;1.43;100.00
15066;BME280;7632;64.944;20.038;2023-09-07T04:03:10;100163.56;;;1.52;100.00
15066;BME280;7632;64.944;20.038;2023-09-07T04:05:37;100142.69;;;1.58;100.00
15066;BME280;7632;64.944;20.038;2023-09-07T04:08:04;100147.16;;;1.63;100.00
15066;BME280;7632;64.944;20.038;2023-09-07T04:10:31;100152.03;;;1.59;100.00
15066;BME280;7632;64.944;20.038;2023-09-07T04:12:58;100155.69;;;1.45;100.00
15066;BME280;7632;64.944;20.038;2023-09-07T04:15:26;100161.00;;;1.51;100.00
15066;BME280;7632;64.944;20.038;2023-09-07T04:17:53;100155.81;;;1.48;100.00
15066;BME280;7632;64.944;20.038;2023-09-07T04:20:20;100150.19;;;1.55;100.00
15066;BME280;7632;64.944;20.038;2023-09-07T04:22:47;100139.69;;;1.68;100.00
15066;BME280;7632;64.944;20.038;2023-09-07T04:25:20;100150.19;;;1.77;100.00
15066;BME280;7632;64.944;20.038;2023-09-07T04:27:47;100155.13;;;1.74;100.00
15066;BME280;7632;64.944;20.038;2023-09-07T04:30:14;100143.94;;;1.91;100.00
15066;BME280;7632;64.944;20.038;2023-09-07T04:32:42;100159.38;;;1.97;100.00
15066;BME280;7632;64.944;20.038;2023-09-07T04:35:09;100153.00;;;2.08;100.00
15066;BME280;7632;64.944;20.038;2023-09-07T04:37:36;100134.31;;;2.05;100.00
15066;BME280;7632;64.944;20.038;2023-09-07T04:40:05;100113.78;;;1.97;100.00
15066;BME280;7632;64.944;20.038;2023-09-07T04:42:32;100143.63;;;2.29;100.00
15066;BME280;7632;64.944;20.038;2023-09-07T04:44:59;100147.34;;;2.15;100.00
15066;BME280;7632;64.944;20.038;2023-09-07T04:47:25;100150.59;;;2.11;100.00
15066;BME280;7632;64.944;20.038;2023-09-07T04:49:53;100151.16;;;2.04;100.00
15066;BME280;7632;64.944;20.038;2023-09-07T04:52:20;100154.53;;;2.27;100.00
15066;BME280;7632;64.944;20.038;2023-09-07T04:54:47;100146.44;;;2.37;100.00
15066;BME280;7632;64.944;20.038;2023-09-07T04:57:16;100152.38;;;2.37;100.00
15066;BME280;7632;64.944;20.038;2023-09-07T04:59:43;100146.69;;;2.44;100.00
15066;BME280;7632;64.944;20.038;2023-09-07T05:02:10;100117.69;;;2.61;100.00
15066;BME280;7632;64.944;20.038;2023-09-07T05:04:37;100140.31;;;2.81;100.00
15066;BME280;7632;64.944;20.038;2023-09-07T05:07:05;100143.97;;;2.89;100.00
15066;BME280;7632;64.944;20.038;2023-09-07T05:09:32;100136.91;;;3.05;100.00
15066;BME280;7632;64.944;20.038;2023-09-07T05:11:58;100130.66;;;3.22;100.00
15066;BME280;7632;64.944;20.038;2023-09-07T05:14:31;100133.44;;;3.30;100.00
15066;BME280;7632;64.944;20.038;2023-09-07T05:16:58;100136.69;;;3.26;100.00
15066;BME280;7632;64.944;20.038;2023-09-07T05:19:25;100131.59;;;3.26;100.00
15066;BME280;7632;64.944;20.038;2023-09-07T05:21:52;100130.28;;;3.37;100.00
15066;BME280;7632;64.944;20.038;2023-09-07T05:24:20;100130.09;;;3.31;100.00
15066;BME280;7632;64.944;20.038;2023-09-07T05:26:47;100124.41;;;3.39;100.00
15066;BME280;7632;64.944;20.038;2023-09-07T05:29:13;100123.75;;;3.45;100.00
15066;BME280;7632;64.944;20.038;2023-09-07T05:31:40;100067.97;;;3.48;100.00
15066;BME280;7632;64.944;20.038;2023-09-07T05:34:07;100101.97;;;3.81;100.00
15066;BME280;7632;64.944;20.038;2023-09-07T05:36:33;100101.81;;;4.06;100.00
15066;BME280;7632;64.944;20.038;2023-09-07T05:39:00;100084.91;;;4.08;100.00
15066;BME280;7632;64.944;20.038;2023-09-07T05:41:30;100102.63;;;4.37;100.00
15066;BME280;7632;64.944;20.038;2023-09-07T05:43:57;100104.25;;;4.34;100.00
15066;BME280;7632;64.944;20.038;2023-09-07T05:46:23;100076.22;;;4.00;100.00
15066;BME280;7632;64.944;20.038;2023-09-07T05:48:50;100096.44;;;3.97;100.00
15066;BME280;7632;64.944;20.038;2023-09-07T05:51:17;100113.44;;;3.98;100.00
15066;BME280;7632;64.944;20.038;2023-09-07T05:53:44;100116.28;;;4.09;100.00
15066;BME280;7632;64.944;20.038;2023-09-07T05:56:10;100121.06;;;4.29;100.00
15066;BME280;7632;64.944;20.038;2023-09-07T05:58:38;100107.31;;;4.54;100.00
15066;BME280;7632;64.944;20.038;2023-09-07T06:01:05;100082.03;;;4.60;100.00
15066;BME280;7632;64.944;20.038;2023-09-07T06:03:33;100090.09;;;4.77;100.00
15066;BME280;7632;64.944;20.038;2023-09-07T06:06:00;100078.16;;;4.76;100.00
15066;BME280;7632;64.944;20.038;2023-09-07T06:08:27;100102.50;;;4.99;100.00
15066;BME280;7632;64.944;20.038;2023-09-07T06:10:54;100094.09;;;5.03;100.00
15066;BME280;7632;64.944;20.038;2023-09-07T06:13:21;100063.59;;;5.06;100.00
15066;BME280;7632;64.944;20.038;2023-09-07T06:15:49;100088.91;;;5.37;100.00
15066;BME280;7632;64.944;20.038;2023-09-07T06:18:15;100086.50;;;5.43;100.00
15066;BME280;7632;64.944;20.038;2023-09-07T06:20:42;100072.25;;;5.51;100.00
15066;BME280;7632;64.944;20.038;2023-09-07T06:23:09;100086.19;;;5.67;100.00
15066;BME280;7632;64.944;20.038;2023-09-07T06:25:35;100076.03;;;5.70;100.00
15066;BME280;7632;64.944;20.038;2023-09-07T06:28:02;100059.25;;;5.81;100.00
15066;BME280;7632;64.944;20.038;2023-09-07T06:30:29;100063.16;;;6.04;100.00
15066;BME280;7632;64.944;20.038;2023-09-07T06:32:59;100059.38;;;6.29;100.00
15066;BME280;7632;64.944;20.038;2023-09-07T06:35:26;100069.78;;;6.41;100.00
15066;BME280;7632;64.944;20.038;2023-09-07T06:37:53;100064.41;;;6.27;100.00
15066;BME280;7632;64.944;20.038;2023-09-07T06:40:19;100060.53;;;6.01;100.00
15066;BME280;7632;64.944;20.038;2023-09-07T06:42:46;100077.81;;;6.16;100.00
15066;BME280;7632;64.944;20.038;2023-09-07T06:45:13;100077.06;;;6.21;100.00
15066;BME280;7632;64.944;20.038;2023-09-07T06:47:39;100052.50;;;6.25;100.00
15066;BME280;7632;64.944;20.038;2023-09-07T06:50:08;100063.97;;;6.49;100.00
15066;BME280;7632;64.944;20.038;2023-09-07T06:52:35;100066.00;;;6.68;100.00
15066;BME280;7632;64.944;20.038;2023-09-07T06:55:02;100068.00;;;6.87;100.00
15066;BME280;7632;64.944;20.038;2023-09-07T06:57:29;100060.13;;;7.31;100.00
15066;BME280;7632;64.944;20.038;2023-09-07T06:59:56;100047.88;;;7.68;100.00
15066;BME280;7632;64.944;20.038;2023-09-07T07:02:22;100054.25;;;8.07;100.00
15066;BME280;7632;64.944;20.038;2023-09-07T07:04:49;100047.78;;;8.37;100.00
15066;BME280;7632;64.944;20.038;2023-09-07T07:07:17;100041.13;;;8.59;100.00
15066;BME280;7632;64.944;20.038;2023-09-07T07:09:44;100035.38;;;8.84;100.00
15066;BME280;7632;64.944;20.038;2023-09-07T07:12:11;100025.25;;;9.08;100.00
15066;BME280;7632;64.944;20.038;2023-09-07T07:14:38;100023.75;;;9.46;100.00
15066;BME280;7632;64.944;20.038;2023-09-07T07:17:05;100029.81;;;9.56;100.00
15066;BME280;7632;64.944;20.038;2023-09-07T07:19:31;100008.44;;;9.62;100.00
15066;BME280;7632;64.944;20.038;2023-09-07T07:21:58;100032.50;;;9.88;100.00
15066;BME280;7632;64.944;20.038;2023-09-07T07:24:26;100029.91;;;9.91;100.00
15066;BME280;7632;64.944;20.038;2023-09-07T07:26:53;100026.53;;;10.02;100.00
15066;BME280;7632;64.944;20.038;2023-09-07T07:29:20;100025.75;;;10.20;100.00
15066;BME280;7632;64.944;20.038;2023-09-07T07:31:47;100033.47;;;10.27;100.00
15066;BME280;7632;64.944;20.038;2023-09-07T07:34:13;100033.44;;;10.18;100.00
15066;BME280;7632;64.944;20.038;2023-09-07T07:36:40;100027.47;;;10.48;100.00
15066;BME280;7632;64.944;20.038;2023-09-07T07:39:07;100024.06;;;10.76;100.00
15066;BME280;7632;64.944;20.038;2023-09-07T07:41:35;100024.06;;;10.79;100.00
15066;BME280;7632;64.944;20.038;2023-09-07T07:44:03;100006.03;;;10.96;100.00
15066;BME280;7632;64.944;20.038;2023-09-07T07:46:30;100001.69;;;11.27;100.00
15066;BME280;7632;64.944;20.038;2023-09-07T07:48:56;100022.13;;;11.63;100.00
15066;BME280;7632;64.944;20.038;2023-09-07T07:51:23;100023.81;;;11.76;100.00
15066;BME280;7632;64.944;20.038;2023-09-07T07:53:53;100032.38;;;11.87;100.00
15066;BME280;7632;64.944;20.038;2023-09-07T07:56:20;100030.44;;;12.22;100.00
15066;BME280;7632;64.944;20.038;2023-09-07T07:58:48;100012.25;;;12.45;100.00
15066;BME280;7632;64.944;20.038;2023-09-07T08:01:16;100008.66;;;12.62;100.00
15066;BME280;7632;64.944;20.038;2023-09-07T08:03:43;100023.03;;;12.90;100.00
15066;BME280;7632;64.944;20.038;2023-09-07T08:06:09;100036.81;;;12.86;100.00
15066;BME280;7632;64.944;20.038;2023-09-07T08:08:37;100017.91;;;12.87;100.00
15066;BME280;7632;64.944;20.038;2023-09-07T08:11:03;100029.28;;;12.65;100.00
15066;BME280;7632;64.944;20.038;2023-09-07T08:13:31;100026.47;;;12.89;100.00
15066;BME280;7632;64.944;20.038;2023-09-07T08:16:00;100021.09;;;13.17;100.00
15066;BME280;7632;64.944;20.038;2023-09-07T08:18:27;100031.56;;;12.99;100.00
15066;BME280;7632;64.944;20.038;2023-09-07T08:20:55;100021.22;;;13.05;100.00
15066;BME280;7632;64.944;20.038;2023-09-07T08:23:22;100010.50;;;13.41;100.00
15066;BME280;7632;64.944;20.038;2023-09-07T08:25:50;100015.59;;;13.47;100.00
15066;BME280;7632;64.944;20.038;2023-09-07T08:28:17;99989.72;;;13.51;100.00
15066;BME280;7632;64.944;20.038;2023-09-07T08:30:46;100008.22;;;13.85;99.59
15066;BME280;7632;64.944;20.038;2023-09-07T08:33:14;100011.47;;;13.99;98.96
15066;BME280;7632;64.944;20.038;2023-09-07T08:35:41;99990.94;;;13.89;96.59
15066;BME280;7632;64.944;20.038;2023-09-07T08:38:09;99999.91;;;14.24;94.73
15066;BME280;7632;64.944;20.038;2023-09-07T08:40:37;100011.44;;;14.02;93.83
15066;BME280;7632;64.944;20.038;2023-09-07T08:43:08;100008.16;;;13.88;95.93
15066;BME280;7632;64.944;20.038;2023-09-07T08:45:40;99995.47;;;13.73;96.10
15066;BME280;7632;64.944;20.038;2023-09-07T08:48:08;100009.75;;;13.98;95.66
15066;BME280;7632;64.944;20.038;2023-09-07T08:50:38;100011.41;;;14.05;95.34
15066;BME280;7632;64.944;20.038;2023-09-07T08:53:08;99992.56;;;13.97;95.32
15066;BME280;7632;64.944;20.038;2023-09-07T08:55:35;99995.59;;;14.23;95.70
15066;BME280;7632;64.944;20.038;2023-09-07T08:58:01;99992.09;;;14.30;93.33
15066;BME280;7632;64.944;20.038;2023-09-07T09:00:28;100000.38;;;14.50;92.50
15066;BME280;7632;64.944;20.038;2023-09-07T09:02:56;99988.00;;;14.71;93.87
15066;BME280;7632;64.944;20.038;2023-09-07T09:05:23;99987.38;;;15.04;97.22
15066;BME280;7632;64.944;20.038;2023-09-07T09:08:02;99968.69;;;14.88;89.75
15066;BME280;7632;64.944;20.038;2023-09-07T09:10:29;99970.88;;;15.09;89.20
15066;BME280;7632;64.944;20.038;2023-09-07T09:12:56;99981.41;;;15.46;89.73
15066;BME280;7632;64.944;20.038;2023-09-07T09:15:25;99979.41;;;15.60;88.01
15066;BME280;7632;64.944;20.038;2023-09-07T09:17:52;99971.59;;;15.62;83.03
15066;BME280;7632;64.944;20.038;2023-09-07T09:20:23;99980.56;;;15.87;81.91
15066;BME280;7632;64.944;20.038;2023-09-07T09:22:51;99984.19;;;15.78;80.86
15066;BME280;7632;64.944;20.038;2023-09-07T09:25:20;99963.38;;;15.40;81.41
15066;BME280;7632;64.944;20.038;2023-09-07T09:27:46;99976.50;;;15.74;82.52
15066;BME280;7632;64.944;20.038;2023-09-07T09:30:19;99951.38;;;15.77;81.43
15066;BME280;7632;64.944;20.038;2023-09-07T09:32:48;99967.41;;;15.94;78.46
15066;BME280;7632;64.944;20.038;2023-09-07T09:35:16;99955.13;;;15.64;77.96
15066;BME280;7632;64.944;20.038;2023-09-07T09:37:44;99973.81;;;15.78;78.59
15066;BME280;7632;64.944;20.038;2023-09-07T09:40:12;99956.28;;;15.89;80.90
15066;BME280;7632;64.944;20.038;2023-09-07T09:42:41;99959.84;;;15.85;77.75
15066;BME280;7632;64.944;20.038;2023-09-07T09:45:09;99948.31;;;15.98;79.72
15066;BME280;7632;64.944;20.038;2023-09-07T09:47:38;99965.22;;;15.76;77.10
15066;BME280;7632;64.944;20.038;2023-09-07T09:50:06;99955.91;;;15.68;76.48
15066;BME280;7632;64.944;20.038;2023-09-07T09:52:34;99949.03;;;15.67;77.02
15066;BME280;7632;64.944;20.038;2023-09-07T09:55:03;99951.16;;;15.88;77.20
15066;BME280;7632;64.944;20.038;2023-09-07T09:57:31;99954.09;;;16.09;78.89
15066;BME280;7632;64.944;20.038;2023-09-07T10:00:00;99950.41;;;16.19;77.90
15066;BME280;7632;64.944;20.038;2023-09-07T10:02:36;99953.09;;;16.15;78.56
15066;BME280;7632;64.944;20.038;2023-09-07T10:05:04;99925.31;;;15.83;77.93
15066;BME280;7632;64.944;20.038;2023-09-07T10:07:42;99948.09;;;16.09;76.92
15066;BME280;7632;64.944;20.038;2023-09-07T10:10:10;99926.41;;;16.11;80.68
15066;BME280;7632;64.944;20.038;2023-09-07T10:12:41;99956.13;;;15.97;78.71
15066;BME280;7632;64.944;20.038;2023-09-07T10:15:24;99949.16;;;15.61;77.02
15066;BME280;7632;64.944;20.038;2023-09-07T10:18:02;99956.34;;;15.48;75.27
15066;BME280;7632;64.944;20.038;2023-09-07T10:20:35;99958.06;;;15.48;77.81
15066;BME280;7632;64.944;20.038;2023-09-07T10:23:12;99946.84;;;15.49;78.31
15066;BME280;7632;64.944;20.038;2023-09-07T10:25:39;99951.25;;;15.43;77.62
15066;BME280;7632;64.944;20.038;2023-09-07T10:28:05;99958.84;;;15.51;78.24
15066;BME280;7632;64.944;20.038;2023-09-07T10:30:34;99963.16;;;15.52;77.47
15066;BME280;7632;64.944;20.038;2023-09-07T10:33:01;99949.22;;;15.58;77.42
15066;BME280;7632;64.944;20.038;2023-09-07T10:35:35;99924.31;;;15.52;80.91
15066;BME280;7632;64.944;20.038;2023-09-07T10:38:03;99966.09;;;15.75;78.80
15066;BME280;7632;64.944;20.038;2023-09-07T10:40:31;99940.81;;;15.86;76.89
15066;BME280;7632;64.944;20.038;2023-09-07T10:43:01;99943.44;;;16.21;79.25
15066;BME280;7632;64.944;20.038;2023-09-07T10:45:29;99947.00;;;16.17;76.24
15066;BME280;7632;64.944;20.038;2023-09-07T10:47:57;99949.06;;;16.03;74.36
15066;BME280;7632;64.944;20.038;2023-09-07T10:50:25;99944.41;;;16.17;73.15
15066;BME280;7632;64.944;20.038;2023-09-07T10:52:51;99946.78;;;16.26;72.98
15066;BME280;7632;64.944;20.038;2023-09-07T10:55:20;99943.50;;;16.55;77.32
15066;BME280;7632;64.944;20.038;2023-09-07T10:57:47;99921.22;;;16.11;74.37
15066;BME280;7632;64.944;20.038;2023-09-07T11:00:15;99937.19;;;16.30;74.77
15066;BME280;7632;64.944;20.038;2023-09-07T11:02:42;99913.59;;;16.39;77.05
15066;BME280;7632;64.944;20.038;2023-09-07T11:05:17;99948.78;;;16.52;75.00
15066;BME280;7632;64.944;20.038;2023-09-07T11:07:44;99949.16;;;16.71;74.38
15066;BME280;7632;64.944;20.038;2023-09-07T11:10:10;99943.59;;;16.52;74.54
15066;BME280;7632;64.944;20.038;2023-09-07T11:12:38;99920.13;;;16.57;74.42
15066;BME280;7632;64.944;20.038;2023-09-07T11:15:07;99937.16;;;16.67;75.16
15066;BME280;7632;64.944;20.038;2023-09-07T11:17:37;99941.03;;;16.51;74.54
15066;BME280;7632;64.944;20.038;2023-09-07T11:20:05;99930.41;;;16.60;74.58
15066;BME280;7632;64.944;20.038;2023-09-07T11:22:34;99925.47;;;16.83;73.34
15066;BME280;7632;64.944;20.038;2023-09-07T11:25:04;99940.03;;;17.21;72.64
15066;BME280;7632;64.944;20.038;2023-09-07T11:27:31;99934.13;;;17.14;71.20
15066;BME280;7632;64.944;20.038;2023-09-07T11:29:58;99934.38;;;17.05;71.08
15066;BME280;7632;64.944;20.038;2023-09-07T11:32:33;99935.66;;;17.21;73.61
15066;BME280;7632;64.944;20.038;2023-09-07T11:35:00;99930.22;;;17.30;72.89
15066;BME280;7632;64.944;20.038;2023-09-07T11:37:27;99939.72;;;16.99;67.14
15066;BME280;7632;64.944;20.038;2023-09-07T11:39:55;99940.66;;;16.98;67.16
15066;BME280;7632;64.944;20.038;2023-09-07T11:42:22;99933.44;;;17.38;68.33
15066;BME280;7632;64.944;20.038;2023-09-07T11:44:48;99927.63;;;17.59;65.59
15066;BME280;7632;64.944;20.038;2023-09-07T11:47:15;99925.22;;;18.09;65.42
15066;BME280;7632;64.944;20.038;2023-09-07T11:49:42;99915.22;;;18.23;66.32
15066;BME280;7632;64.944;20.038;2023-09-07T11:52:09;99902.03;;;18.03;63.10
15066;BME280;7632;64.944;20.038;2023-09-07T11:54:36;99921.25;;;17.40;65.37
15066;BME280;7632;64.944;20.038;2023-09-07T11:57:05;99918.41;;;17.49;67.81
15066;BME280;7632;64.944;20.038;2023-09-07T11:59:31;99913.03;;;17.84;68.80
15066;BME280;7632;64.944;20.038;2023-09-07T12:01:59;99911.22;;;17.28;65.81
15066;BME280;7632;64.944;20.038;2023-09-07T12:04:26;99918.97;;;17.30;65.02
15066;BME280;7632;64.944;20.038;2023-09-07T12:06:52;99895.28;;;17.40;66.30
15066;BME280;7632;64.944;20.038;2023-09-07T12:09:19;99905.94;;;17.31;64.01
15066;BME280;7632;64.944;20.038;2023-09-07T12:11:46;99909.88;;;17.44;65.34
15066;BME280;7632;64.944;20.038;2023-09-07T12:14:14;99905.50;;;17.46;64.52
15066;BME280;7632;64.944;20.038;2023-09-07T12:16:41;99898.38;;;17.24;65.46
15066;BME280;7632;64.944;20.038;2023-09-07T12:19:08;99915.22;;;17.40;65.13
15066;BME280;7632;64.944;20.038;2023-09-07T12:21:34;99912.28;;;17.52;67.17
15066;BME280;7632;64.944;20.038;2023-09-07T12:24:01;99878.88;;;17.67;66.24
15066;BME280;7632;64.944;20.038;2023-09-07T12:26:28;99899.59;;;17.70;65.48
15066;BME280;7632;64.944;20.038;2023-09-07T12:28:54;99905.25;;;17.55;65.98
15066;BME280;7632;64.944;20.038;2023-09-07T12:31:22;99906.00;;;17.59;67.64
15066;BME280;7632;64.944;20.038;2023-09-07T12:33:49;99902.28;;;17.67;69.43
15066;BME280;7632;64.944;20.038;2023-09-07T12:36:17;99901.75;;;17.56;67.21
15066;BME280;7632;64.944;20.038;2023-09-07T12:38:43;99899.25;;;17.53;69.41
15066;BME280;7632;64.944;20.038;2023-09-07T12:41:11;99891.88;;;17.38;66.51
15066;BME280;7632;64.944;20.038;2023-09-07T12:43:37;99891.31;;;17.29;65.25
15066;BME280;7632;64.944;20.038;2023-09-07T12:46:04;99870.00;;;17.45;68.17
15066;BME280;7632;64.944;20.038;2023-09-07T12:48:32;99873.13;;;17.58;67.36
15066;BME280;7632;64.944;20.038;2023-09-07T12:50:59;99871.84;;;17.71;65.09
15066;BME280;7632;64.944;20.038;2023-09-07T12:53:25;99878.00;;;17.68;66.31
15066;BME280;7632;64.944;20.038;2023-09-07T12:55:53;99870.94;;;17.72;66.75